Time;durP1;ratioP1;P1;durP2;ratioP2;P2;SDS_P1;SDS_P2;PMS_P1;PMS_P2;Temp;Humidity;BMP_temperature;BMP_pressure;BME280_temperature;BME280_humidity;BME280_pressure;Samples;Min_cycle;Max_cycle;Signal;HPM_P1;HPM_P2
2022/09/16 00:01:45;;;;;;;8.17;1.97;;;;;;;11.26;98.75;101227.47;5044581;28;20135;-71
2022/09/16 00:04:10;;;;;;;2.53;1.30;;;;;;;11.17;98.17;101231.38;5031969;28;20029;-71
2022/09/16 00:06:35;;;;;;;9.10;1.93;;;;;;;11.20;98.06;101224.66;5048225;28;20468;-71
2022/09/16 00:09:01;;;;;;;4.57;1.30;;;;;;;11.17;97.93;101228.63;5050242;28;20060;-71
2022/09/16 00:11:27;;;;;;;5.47;1.90;;;;;;;11.06;97.79;101222.78;5049249;28;20100;-71
2022/09/16 00:13:52;;;;;;;4.03;1.40;;;;;;;11.06;97.16;101223.63;5048337;28;20037;-71
2022/09/16 00:16:22;;;;;;;6.57;1.60;;;;;;;10.98;97.94;101225.63;5030377;28;20111;-71
2022/09/16 00:18:47;;;;;;;12.30;2.00;;;;;;;10.98;98.33;101222.88;5050389;28;20037;-71
2022/09/16 00:21:13;;;;;;;1.97;1.00;;;;;;;10.83;97.85;101220.16;5032657;28;20032;-71
2022/09/16 00:23:38;;;;;;;6.50;1.93;;;;;;;10.81;97.45;101222.25;5031536;28;20028;-70
2022/09/16 00:26:04;;;;;;;9.33;1.87;;;;;;;10.83;97.51;101216.56;5039521;28;20488;-72
2022/09/16 00:28:30;;;;;;;3.87;1.50;;;;;;;10.83;97.88;101222.88;5030338;28;20500;-70
2022/09/16 00:30:59;;;;;;;7.33;1.67;;;;;;;10.84;97.97;101224.59;5049618;28;20321;-70
2022/09/16 00:33:25;;;;;;;3.92;1.25;;;;;;;10.87;97.53;101220.63;5048489;28;20033;-71
2022/09/16 00:35:50;;;;;;;4.70;1.83;;;;;;;10.87;98.59;101234.31;5025379;28;20319;-70
2022/09/16 00:38:16;;;;;;;9.53;2.13;;;;;;;10.84;97.62;101231.97;5050069;28;20035;-71
2022/09/16 00:40:46;;;;;;;2.70;1.80;;;;;;;10.89;98.59;101224.88;5049731;28;20025;-71
2022/09/16 00:43:13;;;;;;;6.25;1.67;;;;;;;10.94;98.81;101244.34;5050193;28;20480;-70
2022/09/16 00:45:40;;;;;;;8.13;1.80;;;;;;;11.05;98.05;101241.09;5048907;28;20438;-70
2022/09/16 00:48:09;;;;;;;7.07;1.60;;;;;;;11.17;97.57;101230.50;5050304;28;20036;-71
2022/09/16 00:50:42;;;;;;;12.70;1.90;;;;;;;11.48;96.01;101228.38;5024866;28;20037;-70
2022/09/16 00:53:14;;;;;;;9.60;1.40;;;;;;;11.58;94.56;101220.69;5014572;28;20152;-71
2022/09/16 00:55:41;;;;;;;9.02;1.65;;;;;;;11.63;93.85;101223.72;5044692;28;20052;-70
2022/09/16 00:58:19;;;;;;;8.30;1.88;;;;;;;11.66;92.97;101221.44;5049251;28;20037;-71
2022/09/16 01:00:45;;;;;;;7.68;1.30;;;;;;;11.63;94.28;101237.44;5035670;28;20029;-71
2022/09/16 01:03:10;;;;;;;8.80;1.83;;;;;;;11.68;93.74;101226.72;5050262;28;20087;-71
2022/09/16 01:05:37;;;;;;;7.37;1.30;;;;;;;11.66;93.39;101234.28;5047375;28;20391;-71
2022/09/16 01:08:03;;;;;;;7.43;1.50;;;;;;;11.60;94.09;101232.31;5046289;28;20032;-71
2022/09/16 01:10:28;;;;;;;5.68;1.48;;;;;;;11.57;93.74;101235.41;5035987;28;20060;-71
2022/09/16 01:12:58;;;;;;;8.87;2.17;;;;;;;11.54;94.63;101231.16;5048944;28;20057;-71
2022/09/16 01:15:32;;;;;;;11.27;1.40;;;;;;;11.52;94.84;101232.44;5036421;28;20122;-70
2022/09/16 01:18:15;;;;;;;6.65;1.55;;;;;;;11.47;94.64;101229.41;5031750;28;20357;-71
2022/09/16 01:21:03;;;;;;;10.52;1.70;;;;;;;11.52;95.62;101235.19;5046503;28;20021;-71
2022/09/16 01:23:58;;;;;;;8.63;1.60;;;;;;;11.55;95.33;101232.88;5050701;28;20143;-71
2022/09/16 01:26:54;;;;;;;6.80;1.80;;;;;;;11.59;94.63;101239.69;5043683;28;20041;-71
2022/09/16 01:29:57;;;;;;;7.03;1.67;;;;;;;11.62;94.11;101241.19;5040095;28;20029;-70
2022/09/16 01:32:42;;;;;;;4.72;1.30;;;;;;;11.58;95.07;101232.47;5016005;28;20087;-70
2022/09/16 01:35:30;;;;;;;7.78;1.70;;;;;;;11.51;95.73;101225.22;5047169;28;20037;-70
2022/09/16 01:38:26;;;;;;;10.63;1.50;;;;;;;11.50;94.98;101231.75;5022459;28;20029;-71
2022/09/16 01:41:39;;;;;;;5.55;1.30;;;;;;;11.53;95.70;101232.22;5046615;28;20063;-72
2022/09/16 01:44:38;;;;;;;4.03;1.40;;;;;;;11.67;94.49;101235.97;4958573;28;20070;-70
2022/09/16 01:47:11;;;;;;;;;;;;;;;11.75;94.34;101238.63;4952865;28;20066;-70
2022/09/16 01:49:49;;;;;;;4.50;1.40;;;;;;;11.84;93.87;101234.72;5032134;28;19917;-70
2022/09/16 01:52:35;;;;;;;7.07;1.33;;;;;;;11.89;93.89;101240.44;5048609;28;20041;-71
2022/09/16 01:55:05;;;;;;;3.25;0.90;;;;;;;11.94;93.27;101246.19;5048926;28;20085;-71
2022/09/16 01:57:49;;;;;;;7.15;1.45;;;;;;;11.95;93.45;101245.16;5049787;28;20507;-71
2022/09/16 02:00:15;;;;;;;8.20;1.83;;;;;;;12.00;93.42;101249.00;5030007;28;20063;-71
2022/09/16 02:02:55;;;;;;;10.45;1.58;;;;;;;12.13;92.04;101248.28;5048634;28;20025;-71
2022/09/16 02:05:27;;;;;;;7.05;1.50;;;;;;;12.18;92.31;101254.03;5047627;28;20356;-71
2022/09/16 02:08:02;;;;;;;7.40;0.88;;;;;;;12.29;90.82;101250.75;5030872;28;20043;-71
2022/09/16 02:10:38;;;;;;;4.90;1.38;;;;;;;12.37;89.15;101234.09;5045669;28;20032;-70
2022/09/16 02:13:33;;;;;;;9.55;2.35;;;;;;;12.30;91.70;101245.06;5045999;28;20033;-71
2022/09/16 02:16:03;;;;;;;6.18;0.93;;;;;;;12.24;92.60;101243.13;5045996;28;20056;-71
2022/09/16 02:18:35;;;;;;;8.95;1.25;;;;;;;12.20;93.04;101246.44;5049219;28;20082;-72
2022/09/16 02:21:04;;;;;;;6.43;1.10;;;;;;;12.07;93.46;101238.09;5046589;28;20021;-71
2022/09/16 02:23:38;;;;;;;3.53;1.10;;;;;;;12.04;95.16;101239.34;5031907;28;20044;-71
2022/09/16 02:26:05;;;;;;;4.50;1.23;;;;;;;12.02;94.60;101232.34;5047063;28;20147;-71
2022/09/16 02:28:36;;;;;;;4.25;0.85;;;;;;;11.99;95.18;101239.06;5025545;28;20528;-71
2022/09/16 02:31:05;;;;;;;3.35;1.42;;;;;;;11.99;94.95;101244.56;5037487;28;20036;-71
2022/09/16 02:33:45;;;;;;;4.63;1.20;;;;;;;11.98;95.16;101242.00;5048918;28;20037;-71
2022/09/16 02:36:15;;;;;;;4.35;0.85;;;;;;;11.94;95.99;101236.06;5043288;28;20436;-71
2022/09/16 02:38:45;;;;;;;3.10;0.73;;;;;;;11.96;95.87;101239.44;5030832;28;20082;-71
2022/09/16 02:41:13;;;;;;;3.78;1.00;;;;;;;11.95;95.32;101234.19;5044469;28;20040;-71
2022/09/16 02:43:40;;;;;;;2.10;0.82;;;;;;;11.92;96.61;101237.31;5049073;28;20130;-70
2022/09/16 02:46:05;;;;;;;;;;;;;;;11.91;96.26;101236.44;5047179;28;20357;-70
2022/09/16 02:48:40;;;;;;;3.45;0.80;;;;;;;11.83;96.04;101236.59;5048376;28;19920;-70
2022/09/16 02:51:08;;;;;;;2.33;1.00;;;;;;;11.84;96.11;101240.19;5047253;28;20033;-70
2022/09/16 02:53:51;;;;;;;2.47;0.70;;;;;;;11.86;96.30;101254.56;5019741;28;20524;-70
2022/09/16 02:56:26;;;;;;;2.97;0.80;;;;;;;11.87;97.46;101253.50;5041526;28;20037;-70
2022/09/16 02:58:51;;;;;;;4.07;0.98;;;;;;;11.92;96.96;101251.91;5047491;28;20037;-70
2022/09/16 03:01:18;;;;;;;17.67;1.63;;;;;;;12.03;97.13;101245.88;5042583;28;20032;-70
2022/09/16 03:03:44;;;;;;;6.57;1.00;;;;;;;12.06;94.79;101253.69;5051599;28;20461;-71
2022/09/16 03:06:19;;;;;;;7.57;1.30;;;;;;;12.12;95.61;101254.81;5032386;28;20032;-71
2022/09/16 03:08:46;;;;;;;4.68;0.70;;;;;;;12.16;94.75;101254.22;5050153;28;20033;-71
2022/09/16 03:11:24;;;;;;;10.00;1.02;;;;;;;12.20;92.83;101260.16;5050620;28;20051;-71
2022/09/16 03:14:15;;;;;;;7.85;1.15;;;;;;;12.20;93.27;101254.66;5032941;28;20124;-71
2022/09/16 03:16:55;;;;;;;7.20;1.08;;;;;;;12.26;93.34;101253.88;5044952;28;20072;-71
2022/09/16 03:19:38;;;;;;;7.07;0.90;;;;;;;12.20;93.27;101243.69;5018228;28;20083;-71
2022/09/16 03:22:16;;;;;;;4.78;1.00;;;;;;;12.17;92.60;101242.19;5051774;28;20096;-71
2022/09/16 03:25:02;;;;;;;8.25;1.25;;;;;;;12.09;93.96;101246.97;5049926;28;20113;-71
2022/09/16 03:27:39;;;;;;;8.38;1.17;;;;;;;12.09;94.00;101252.47;5050045;28;20196;-71
2022/09/16 03:30:07;;;;;;;5.18;0.95;;;;;;;12.09;93.40;101249.72;5049986;28;20274;-71
2022/09/16 03:32:43;;;;;;;8.48;1.10;;;;;;;12.16;92.87;101245.97;5049872;28;20060;-71
2022/09/16 03:35:26;;;;;;;2.00;0.90;;;;;;;12.11;93.75;101239.41;5039927;28;20033;-71
2022/09/16 03:37:57;;;;;;;1.50;0.88;;;;;;;12.08;94.53;101234.28;5044528;28;20529;-71
2022/09/16 03:40:23;;;;;;;2.30;0.85;;;;;;;12.04;93.71;101241.22;5049409;28;20036;-71
2022/09/16 03:42:49;;;;;;;1.38;0.80;;;;;;;12.04;94.80;101250.31;5051789;28;20035;-71
2022/09/16 03:45:17;;;;;;;5.37;0.90;;;;;;;12.05;94.62;101249.25;5035148;28;20037;-71
2022/09/16 03:47:45;;;;;;;4.95;0.80;;;;;;;12.06;91.58;101247.38;5049643;28;20037;-71
2022/09/16 03:50:10;;;;;;;4.57;0.80;;;;;;;12.00;92.64;101248.16;5046661;28;20395;-71
2022/09/16 03:52:35;;;;;;;1.83;0.77;;;;;;;12.06;92.71;101250.13;5032269;28;20111;-71
2022/09/16 03:55:01;;;;;;;3.17;1.27;;;;;;;12.02;92.85;101240.56;5032190;28;20084;-71
2022/09/16 03:57:27;;;;;;;3.80;0.97;;;;;;;11.99;92.92;101250.06;5028974;28;20032;-71
2022/09/16 03:59:52;;;;;;;2.90;0.80;;;;;;;12.06;92.83;101241.88;5035210;28;20059;-71
2022/09/16 04:02:18;;;;;;;5.00;1.00;;;;;;;12.04;92.36;101253.06;5048818;28;20105;-71
2022/09/16 04:04:43;;;;;;;3.03;1.10;;;;;;;12.08;92.83;101256.25;5049006;28;20043;-71
2022/09/16 04:07:08;;;;;;;7.37;1.00;;;;;;;12.10;93.63;101241.28;5049308;28;20029;-72
2022/09/16 04:09:36;;;;;;;8.70;1.37;;;;;;;12.09;93.27;101244.22;5050756;28;20488;-72
2022/09/16 04:12:02;;;;;;;5.53;1.20;;;;;;;12.03;94.14;101237.63;5031296;28;20040;-72
2022/09/16 04:14:27;;;;;;;3.78;1.17;;;;;;;12.03;94.90;101236.78;5045915;28;20033;-71
2022/09/16 04:16:53;;;;;;;2.37;0.90;;;;;;;11.99;94.44;101235.47;5050647;28;20029;-72
2022/09/16 04:19:19;;;;;;;4.83;1.10;;;;;;;11.98;94.80;101233.78;5050239;28;20337;-72
2022/09/16 04:21:44;;;;;;;3.33;1.30;;;;;;;11.98;94.51;101242.00;5031448;28;20033;-71
2022/09/16 04:24:09;;;;;;;5.00;1.50;;;;;;;11.94;94.95;101249.78;5049982;28;20353;-72
2022/09/16 04:26:35;;;;;;;2.53;1.00;;;;;;;11.98;94.84;101250.25;5048184;28;20598;-72
2022/09/16 04:29:00;;;;;;;1.97;0.87;;;;;;;11.92;95.03;101259.28;5048744;28;20495;-72
2022/09/16 04:31:25;;;;;;;2.37;0.80;;;;;;;11.91;95.50;101249.34;5045300;28;20032;-73
2022/09/16 04:33:50;;;;;;;6.47;1.20;;;;;;;11.94;95.49;101254.41;5048891;28;20472;-72
2022/09/16 04:36:19;;;;;;;2.60;1.17;;;;;;;11.90;95.66;101236.66;5050042;28;20041;-72
2022/09/16 04:38:48;;;;;;;2.75;0.70;;;;;;;11.91;95.37;101235.63;5047223;28;20037;-72
2022/09/16 04:41:17;;;;;;;6.13;1.00;;;;;;;11.91;95.73;101236.44;5039977;28;20036;-71
2022/09/16 04:43:42;;;;;;;4.53;0.90;;;;;;;11.85;95.79;101236.41;5047227;28;20349;-71
2022/09/16 04:46:08;;;;;;;3.37;0.83;;;;;;;11.86;96.02;101236.19;5048170;28;20076;-71
2022/09/16 04:48:34;;;;;;;4.10;0.80;;;;;;;11.86;95.83;101227.13;5047782;28;20254;-70
2022/09/16 04:51:08;;;;;;;2.33;1.20;;;;;;;11.86;95.45;101221.63;5043505;28;20029;-72
2022/09/16 04:53:34;;;;;;;3.95;1.20;;;;;;;11.89;96.26;101223.97;5048831;28;20112;-71
2022/09/16 04:56:09;;;;;;;6.18;1.10;;;;;;;11.83;95.86;101219.25;5049901;28;20028;-71
2022/09/16 04:58:35;;;;;;;5.47;1.08;;;;;;;11.82;96.00;101220.31;5032079;28;20506;-71
2022/09/16 05:01:12;;;;;;;8.27;1.25;;;;;;;11.81;95.81;101221.38;5024018;28;20029;-71
2022/09/16 05:03:42;;;;;;;3.38;1.05;;;;;;;11.64;96.73;101204.28;5045426;28;20112;-71
2022/09/16 05:06:10;;;;;;;5.88;1.20;;;;;;;11.55;97.14;101212.81;5039688;28;20037;-70
2022/09/16 05:08:36;;;;;;;7.38;1.75;;;;;;;11.57;97.65;101230.78;5042215;28;20032;-70
2022/09/16 05:11:07;;;;;;;5.07;1.10;;;;;;;11.65;97.16;101238.09;5048437;28;20025;-71
2022/09/16 05:13:32;;;;;;;3.55;1.00;;;;;;;11.73;97.52;101246.19;5048677;28;20048;-71
2022/09/16 05:16:06;;;;;;;8.47;2.07;;;;;;;11.77;97.10;101233.78;5046190;28;20174;-71
2022/09/16 05:18:32;;;;;;;8.07;1.73;;;;;;;11.71;97.77;101238.16;5031270;28;20147;-72
2022/09/16 05:20:59;;;;;;;9.33;1.93;;;;;;;11.77;95.76;101222.78;5049648;28;20036;-71
2022/09/16 05:23:25;;;;;;;7.93;1.70;;;;;;;11.79;96.50;101226.22;5032036;28;20435;-72
2022/09/16 05:25:51;;;;;;;4.28;1.30;;;;;;;11.77;96.07;101225.53;5049655;28;20033;-72
2022/09/16 05:28:17;;;;;;;5.67;1.20;;;;;;;11.75;96.12;101222.16;5047067;28;20051;-72
2022/09/16 05:30:42;;;;;;;6.47;1.97;;;;;;;11.71;96.25;101221.69;5035222;28;20038;-71
2022/09/16 05:33:08;;;;;;;10.23;1.57;;;;;;;11.63;95.88;101219.06;5019148;28;20048;-71
2022/09/16 05:35:33;;;;;;;2.50;1.33;;;;;;;11.64;95.58;101228.16;5040195;28;20546;-71
2022/09/16 05:37:58;;;;;;;4.53;1.47;;;;;;;11.66;95.98;101234.28;5041994;28;20025;-72
2022/09/16 05:40:26;;;;;;;6.43;1.42;;;;;;;11.61;96.12;101229.41;5048833;28;20039;-71
2022/09/16 05:42:51;;;;;;;7.43;1.92;;;;;;;11.60;96.29;101235.94;5030857;28;20043;-71
2022/09/16 05:45:16;;;;;;;8.37;1.87;;;;;;;11.55;97.42;101234.78;5048228;28;20037;-69
2022/09/16 05:47:49;;;;;;;7.37;1.90;;;;;;;11.47;97.47;101233.00;5043352;28;20028;-70
2022/09/16 05:50:15;;;;;;;7.28;1.83;;;;;;;11.45;96.95;101236.97;5037360;28;20691;-69
2022/09/16 05:52:40;;;;;;;9.83;1.40;;;;;;;11.40;96.99;101229.34;5049461;28;20037;-69
2022/09/16 05:55:06;;;;;;;7.67;1.30;;;;;;;11.32;97.94;101234.09;5033019;28;20551;-69
2022/09/16 05:57:31;;;;;;;3.10;1.60;;;;;;;11.29;97.80;101227.09;5018486;28;20111;-68
2022/09/16 05:59:56;;;;;;;5.90;1.30;;;;;;;11.29;97.71;101237.19;5044909;28;20509;-68
2022/09/16 06:02:22;;;;;;;7.73;1.60;;;;;;;11.32;97.57;101242.31;5045894;28;20025;-68
2022/09/16 06:04:47;;;;;;;7.33;1.70;;;;;;;11.45;97.30;101239.72;5031444;28;20083;-68
2022/09/16 06:07:12;;;;;;;11.63;1.80;;;;;;;11.61;97.44;101242.25;5047040;28;20033;-68
2022/09/16 06:09:38;;;;;;;4.13;1.50;;;;;;;11.80;97.93;101249.88;5047731;28;20044;-68
2022/09/16 06:12:03;;;;;;;11.63;2.00;;;;;;;11.92;98.07;101249.16;5048312;28;20107;-69
2022/09/16 06:14:29;;;;;;;6.80;1.83;;;;;;;12.06;97.85;101258.38;5047252;28;20040;-69
2022/09/16 06:16:55;;;;;;;7.80;2.17;;;;;;;12.19;97.75;101259.34;5026395;28;20068;-68
2022/09/16 06:19:20;;;;;;;12.07;3.17;;;;;;;12.23;95.81;101254.28;5022301;28;20032;-68
2022/09/16 06:21:46;;;;;;;15.10;2.37;;;;;;;12.19;95.90;101266.72;5027108;28;20671;-68
2022/09/16 06:24:13;;;;;;;10.33;2.53;;;;;;;12.11;95.46;101264.94;5048441;28;20021;-69
2022/09/16 06:26:41;;;;;;;13.88;2.60;;;;;;;12.11;95.86;101256.72;5047777;28;20029;-69
2022/09/16 06:29:08;;;;;;;6.40;1.75;;;;;;;12.10;96.22;101251.41;5030163;28;20029;-70
2022/09/16 06:31:33;;;;;;;;;;;;;;;12.14;95.15;101271.94;5030171;28;20484;-68
2022/09/16 06:33:59;;;;;;;48.92;6.55;;;;;;;12.10;95.74;101266.00;5049138;28;19917;-68
2022/09/16 06:36:27;;;;;;;21.20;3.97;;;;;;;12.12;95.74;101274.03;5024286;28;20037;-69
2022/09/16 06:38:53;;;;;;;6.95;1.83;;;;;;;12.08;95.66;101279.09;5046622;28;20033;-69
2022/09/16 06:41:19;;;;;;;13.63;1.97;;;;;;;12.06;94.92;101280.31;5049422;28;20028;-68
2022/09/16 06:43:45;;;;;;;;;;;;;;;12.07;92.97;101276.53;5030495;28;20262;-70
2022/09/16 06:46:17;;;;;;;11.68;2.28;;;;;;;12.10;93.19;101281.63;5047435;28;20011;-69
2022/09/16 06:48:44;;;;;;;7.13;1.58;;;;;;;12.11;93.18;101270.44;5046738;28;20071;-69
2022/09/16 06:51:13;;;;;;;9.82;1.52;;;;;;;12.25;91.12;101272.28;5028738;28;20033;-69
2022/09/16 06:53:39;;;;;;;8.00;1.98;;;;;;;12.33;90.68;101274.88;5046896;28;20452;-68
2022/09/16 06:56:07;;;;;;;12.83;1.70;;;;;;;12.50;90.79;101275.44;5045739;28;20065;-69
2022/09/16 06:58:34;;;;;;;14.50;1.55;;;;;;;12.59;90.96;101271.50;5047377;28;20104;-69
2022/09/16 07:01:12;;;;;;;8.02;2.10;;;;;;;12.69;88.57;101271.97;5048650;28;20029;-68
2022/09/16 07:03:39;;;;;;;3.97;1.42;;;;;;;12.72;87.70;101268.84;5024733;28;20039;-68
2022/09/16 07:06:06;;;;;;;6.07;1.00;;;;;;;12.79;88.42;101259.59;5048242;28;20112;-69
2022/09/16 07:08:33;;;;;;;3.58;0.90;;;;;;;12.91;86.58;101252.47;5039214;28;20077;-69
2022/09/16 07:11:01;;;;;;;4.82;1.65;;;;;;;12.92;85.96;101256.06;5047449;28;20044;-70
2022/09/16 07:13:26;;;;;;;6.90;1.25;;;;;;;12.93;85.65;101255.03;5046204;28;20548;-69
2022/09/16 07:15:52;;;;;;;2.33;0.97;;;;;;;12.88;86.26;101254.78;5047948;28;20051;-69
2022/09/16 07:18:18;;;;;;;9.53;1.07;;;;;;;12.84;86.62;101254.34;5042537;28;20063;-69
2022/09/16 07:20:43;;;;;;;7.53;1.47;;;;;;;13.04;84.27;101248.97;5032258;28;20447;-69
2022/09/16 07:23:09;;;;;;;6.17;1.77;;;;;;;13.19;81.60;101247.78;5029757;28;20376;-69
2022/09/16 07:25:35;;;;;;;4.73;1.00;;;;;;;13.33;83.05;101248.69;5031673;28;20029;-70
2022/09/16 07:28:00;;;;;;;6.27;1.30;;;;;;;13.34;82.93;101261.41;5029969;28;20374;-69
2022/09/16 07:30:27;;;;;;;11.70;2.00;;;;;;;13.43;84.79;101261.03;5049295;28;20501;-69
2022/09/16 07:32:52;;;;;;;12.18;1.95;;;;;;;13.58;82.77;101269.13;5028094;28;20052;-70
2022/09/16 07:35:17;;;;;;;15.23;2.13;;;;;;;13.76;84.12;101272.16;5043491;28;20083;-69
2022/09/16 07:37:43;;;;;;;4.73;0.97;;;;;;;13.99;84.89;101269.88;5040329;28;20068;-70
2022/09/16 07:40:09;;;;;;;9.03;1.53;;;;;;;14.34;83.44;101282.44;5036525;28;20090;-71
2022/09/16 07:42:34;;;;;;;5.93;1.30;;;;;;;14.31;81.03;101278.19;5049711;28;20287;-70
2022/09/16 07:44:59;;;;;;;6.43;1.33;;;;;;;14.42;80.21;101282.25;5044660;28;20025;-70
2022/09/16 07:47:25;;;;;;;3.50;1.30;;;;;;;14.23;82.87;101302.34;5030300;28;20035;-70
2022/09/16 07:49:54;;;;;;;10.47;1.60;;;;;;;13.92;83.95;101321.34;5050683;28;20080;-69
2022/09/16 07:52:28;;;;;;;11.70;1.80;;;;;;;13.63;85.36;101305.13;5031156;28;20032;-68
2022/09/16 07:54:56;;;;;;;9.43;1.35;;;;;;;13.34;88.26;101297.19;5047982;28;20425;-68
2022/09/16 07:57:21;;;;;;;8.40;1.35;;;;;;;13.17;87.89;101298.53;5048200;28;20473;-69
2022/09/16 07:59:47;;;;;;;5.83;1.20;;;;;;;12.98;88.01;101302.88;5049254;28;20024;-69
2022/09/16 08:02:12;;;;;;;6.30;1.57;;;;;;;12.95;88.45;101303.25;5042536;28;20088;-71
2022/09/16 08:04:37;;;;;;;4.20;1.30;;;;;;;12.93;88.32;101296.25;5049111;28;20144;-68
2022/09/16 08:07:04;;;;;;;8.97;1.60;;;;;;;13.07;89.03;101300.84;5045626;28;20063;-68
2022/09/16 08:09:29;;;;;;;6.78;1.40;;;;;;;13.14;87.57;101293.47;5047244;28;20473;-68
2022/09/16 08:11:55;;;;;;;2.57;1.27;;;;;;;13.24;87.29;101302.22;5039343;28;20033;-68
2022/09/16 08:14:20;;;;;;;6.67;1.90;;;;;;;13.19;85.79;101307.47;5049111;28;20072;-68
2022/09/16 08:16:45;;;;;;;2.63;1.10;;;;;;;13.21;87.81;101299.84;5023162;28;20026;-68
2022/09/16 08:19:11;;;;;;;4.53;1.37;;;;;;;13.34;84.76;101300.75;5031453;28;20033;-69
2022/09/16 08:21:37;;;;;;;1.53;1.00;;;;;;;13.71;85.87;101307.72;5046997;28;20036;-68
2022/09/16 08:24:02;;;;;;;3.63;1.40;;;;;;;13.79;84.73;101304.78;5051565;28;20095;-69
2022/09/16 08:26:28;;;;;;;2.87;1.23;;;;;;;13.46;84.67;101301.03;5033765;28;20117;-68
2022/09/16 08:28:53;;;;;;;4.70;1.90;;;;;;;13.40;84.59;101294.44;5033290;28;20033;-68
2022/09/16 08:31:19;;;;;;;3.67;1.40;;;;;;;13.45;84.84;101293.84;5033410;28;20471;-68
2022/09/16 08:33:45;;;;;;;9.10;1.75;;;;;;;13.68;84.70;101294.34;5043926;28;20040;-68
2022/09/16 08:36:16;;;;;;;10.57;2.87;;;;;;;13.94;84.33;101291.69;5043408;28;20108;-68
2022/09/16 08:38:43;;;;;;;5.72;2.28;;;;;;;14.08;85.14;101296.19;5024428;28;20051;-68
2022/09/16 08:41:36;;;;;;;3.72;1.40;;;;;;;13.91;85.23;101294.84;5047593;28;20234;-69
2022/09/16 08:44:20;;;;;;;7.45;2.40;;;;;;;14.34;84.11;101310.88;5027690;28;20071;-69
2022/09/16 08:46:54;;;;;;;5.55;1.75;;;;;;;14.42;82.92;101312.56;5030656;28;20065;-69
2022/09/16 08:49:38;;;;;;;3.72;1.17;;;;;;;14.29;84.38;101327.19;5013651;28;20037;-68
2022/09/16 08:52:17;;;;;;;8.02;1.65;;;;;;;14.16;85.40;101345.56;5047429;28;20545;-69
2022/09/16 08:54:53;;;;;;;12.45;2.30;;;;;;;14.08;87.73;101345.75;5051117;28;20043;-68
2022/09/16 08:57:23;;;;;;;5.75;1.10;;;;;;;13.45;85.50;101341.47;5031695;28;20051;-69
2022/09/16 09:00:04;;;;;;;1.60;0.85;;;;;;;13.38;87.23;101346.09;5050294;28;20040;-69
2022/09/16 09:02:48;;;;;;;4.78;0.90;;;;;;;13.47;86.74;101341.25;5048814;28;20638;-69
2022/09/16 09:05:24;;;;;;;6.18;1.50;;;;;;;13.52;87.39;101344.25;5051270;28;20029;-70
2022/09/16 09:08:22;;;;;;;5.30;2.10;;;;;;;13.59;87.89;101342.38;5030270;28;20029;-69
2022/09/16 09:10:52;;;;;;;10.18;1.27;;;;;;;13.72;88.19;101345.22;5050662;28;20178;-70
2022/09/16 09:13:33;;;;;;;3.13;1.10;;;;;;;13.87;88.39;101338.47;5031202;28;20044;-69
2022/09/16 09:16:20;;;;;;;6.90;1.92;;;;;;;13.95;87.48;101352.06;5030980;28;20036;-69
2022/09/16 09:18:52;;;;;;;11.63;1.83;;;;;;;14.18;86.27;101355.31;5030846;28;20048;-69
2022/09/16 09:21:57;;;;;;;11.20;1.67;;;;;;;14.40;89.08;101353.28;5049497;28;20025;-70
2022/09/16 09:24:36;;;;;;;11.65;1.70;;;;;;;14.59;86.58;101367.09;4985051;28;20044;-69
2022/09/16 09:27:26;;;;;;;8.15;1.27;;;;;;;14.45;82.79;101367.25;5049370;28;20047;-69
2022/09/16 09:30:01;;;;;;;14.32;2.28;;;;;;;14.08;83.96;101363.13;5049401;28;20073;-69
2022/09/16 09:32:47;;;;;;;8.20;1.63;;;;;;;13.77;81.56;101373.81;5048069;28;20033;-69
2022/09/16 09:35:45;;;;;;;7.75;2.22;;;;;;;13.64;85.07;101367.38;5031229;28;20078;-69
2022/09/16 09:38:27;;;;;;;10.15;1.35;;;;;;;13.64;85.24;101356.38;5044779;28;20057;-69
2022/09/16 09:41:04;;;;;;;8.82;1.30;;;;;;;13.74;86.35;101365.13;5041572;28;20104;-69
2022/09/16 09:43:40;;;;;;;6.50;1.10;;;;;;;13.73;84.57;101367.03;5048765;28;20060;-69
2022/09/16 09:46:23;;;;;;;6.88;1.05;;;;;;;13.75;84.59;101369.56;5030595;28;20032;-69
2022/09/16 09:49:19;;;;;;;9.57;1.65;;;;;;;13.80;85.33;101367.03;5048938;28;20077;-68
2022/09/16 09:51:53;;;;;;;3.75;1.17;;;;;;;13.79;81.85;101370.84;5049744;28;20025;-69
2022/09/16 09:54:24;;;;;;;14.60;1.63;;;;;;;13.70;84.29;101381.19;5048171;28;20021;-69
2022/09/16 09:57:01;;;;;;;7.22;1.33;;;;;;;13.48;82.82;101379.59;5045006;28;20034;-69
2022/09/16 10:00:15;;;;;;;2.07;0.93;;;;;;;13.30;85.65;101383.94;5048537;28;20391;-68
2022/09/16 10:02:43;;;;;;;4.13;1.40;;;;;;;13.03;85.61;101379.31;5015980;28;20132;-68
2022/09/16 10:05:29;;;;;;;9.23;1.20;;;;;;;12.91;87.70;101372.63;5020433;28;20026;-71
2022/09/16 10:07:59;;;;;;;6.32;1.42;;;;;;;13.01;86.93;101367.63;5045444;28;20091;-69
2022/09/16 10:10:28;;;;;;;6.95;1.45;;;;;;;13.26;88.42;101368.88;5030530;28;20031;-69
2022/09/16 10:12:53;;;;;;;4.43;1.10;;;;;;;13.44;87.10;101360.97;5047006;28;20619;-69
2022/09/16 10:15:37;;;;;;;4.77;1.30;;;;;;;13.76;87.42;101366.59;5048952;28;20116;-69
2022/09/16 10:18:12;;;;;;;7.43;1.33;;;;;;;13.91;87.70;101352.69;5047113;28;20510;-69
2022/09/16 10:20:41;;;;;;;7.60;1.60;;;;;;;14.46;85.52;101357.97;5048860;28;20035;-68
2022/09/16 10:23:18;;;;;;;6.20;1.20;;;;;;;14.79;83.77;101353.31;5046298;28;20052;-68
2022/09/16 10:25:43;;;;;;;5.65;1.13;;;;;;;14.95;83.35;101355.63;5049130;28;20067;-68
2022/09/16 10:28:21;;;;;;;6.00;1.77;;;;;;;15.20;83.03;101351.16;5030007;28;20036;-69
2022/09/16 10:30:50;;;;;;;4.97;1.40;;;;;;;15.02;83.70;101354.56;5030849;28;20144;-69
2022/09/16 10:33:30;;;;;;;6.82;2.00;;;;;;;15.01;84.33;101349.25;5029793;28;20032;-68
2022/09/16 10:35:59;;;;;;;7.07;1.73;;;;;;;14.97;81.30;101347.97;5048094;28;20480;-69
2022/09/16 10:38:37;;;;;;;9.70;1.80;;;;;;;15.47;82.78;101337.09;5028075;28;20579;-69
2022/09/16 10:41:32;;;;;;;7.85;1.50;;;;;;;15.72;82.06;101337.22;5048500;28;20453;-70
2022/09/16 10:44:06;;;;;;;8.75;1.58;;;;;;;15.81;80.54;101344.19;5043054;28;20044;-70
2022/09/16 10:46:32;;;;;;;8.20;1.60;;;;;;;15.77;81.47;101337.41;5029624;28;20025;-69
2022/09/16 10:49:13;;;;;;;4.57;1.20;;;;;;;15.59;76.32;101340.03;5048140;28;20063;-69
2022/09/16 10:51:38;;;;;;;8.93;1.40;;;;;;;15.76;79.60;101344.88;5045237;28;20282;-70
2022/09/16 10:54:05;;;;;;;4.63;1.17;;;;;;;15.57;80.59;101344.91;5044169;28;20029;-69
2022/09/16 10:56:50;;;;;;;9.48;1.38;;;;;;;15.28;77.08;101343.50;5047784;28;20028;-69
2022/09/16 10:59:16;;;;;;;6.47;1.20;;;;;;;15.05;76.82;101348.59;5048013;28;20051;-68
2022/09/16 11:01:53;;;;;;;6.17;1.87;;;;;;;14.76;79.89;101353.72;5046032;28;20452;-70
2022/09/16 11:04:36;;;;;;;15.35;1.95;;;;;;;14.73;80.99;101354.16;5047999;28;20938;-70
2022/09/16 11:07:27;;;;;;;9.23;1.67;;;;;;;14.58;82.08;101356.25;5028002;28;20028;-72
2022/09/16 11:10:09;;;;;;;6.80;2.00;;;;;;;14.57;80.98;101355.41;5046841;28;20024;-69
2022/09/16 11:13:06;;;;;;;13.95;1.85;;;;;;;14.89;82.94;101353.72;5030871;28;20475;-68
2022/09/16 11:15:44;;;;;;;5.22;1.35;;;;;;;14.84;81.69;101350.75;5051450;28;20025;-69
2022/09/16 11:18:12;;;;;;;7.20;1.25;;;;;;;14.92;82.43;101350.53;5049870;28;20422;-70
2022/09/16 11:20:49;;;;;;;6.88;1.05;;;;;;;15.02;79.88;101346.28;5020239;28;20037;-69
2022/09/16 11:23:15;;;;;;;;;;;;;;;15.02;82.29;101339.91;5050040;28;20502;-70
2022/09/16 11:26:08;;;;;;;3.53;1.65;;;;;;;14.99;80.11;101343.94;5049967;28;19916;-69
2022/09/16 11:29:09;;;;;;;5.80;1.30;;;;;;;15.88;78.33;101347.78;5050356;28;20071;-69
2022/09/16 11:31:53;;;;;;;13.63;1.35;;;;;;;16.23;73.10;101349.09;5036265;28;20037;-69
2022/09/16 11:34:38;;;;;;;8.90;1.60;;;;;;;16.64;73.31;101350.31;5050126;28;20530;-69
2022/09/16 11:37:31;;;;;;;5.35;1.83;;;;;;;16.91;72.69;101343.50;5049458;28;20033;-70
2022/09/16 11:40:25;;;;;;;7.38;0.98;;;;;;;17.11;72.09;101341.38;5031599;28;20128;-69
2022/09/16 11:43:00;;;;;;;4.97;1.05;;;;;;;16.63;68.78;101333.94;5030826;28;20032;-69
2022/09/16 11:45:37;;;;;;;6.82;1.27;;;;;;;16.42;69.86;101337.94;5032813;28;20033;-70
2022/09/16 11:48:27;;;;;;;4.13;1.00;;;;;;;15.86;72.03;101341.63;5028954;28;20041;-70